.
WxDataArchive / Data Records for 2006-05-23
2006-05-22 May 2006 2006-05-24

Data Records for Tuesday, 23 May 2006

Time	Temp	Chill	HIndex	Humid	Dewpt	 Wind 	HiWind	WindDir	Rain 	Barom 
-----	----	-----	------	-----	-----	------	------	-------	-----	----- 
00:00	48.2	48.2	48.2	52	31.4	0	0	---	0.00	30.133 
00:05	47.9	47.9	47.9	54	32.1	0	0	---	0.00	30.133 
00:10	47.6	47.6	47.6	54	31.8	0	0	---	0.00	30.133 
00:15	47.4	47.4	47.4	54	31.6	0	0	---	0.00	30.127 
00:20	47.3	47.3	47.3	55	32.0	0	0	---	0.00	30.127 
00:25	47.1	47.1	47.1	55	31.8	0	0	---	0.00	30.127 
00:30	47.0	47.0	47.0	56	32.1	0	0	---	0.00	30.126 
00:35	46.8	46.8	46.8	56	31.9	0	0	---	0.00	30.126 
00:40	46.7	46.7	46.7	57	32.3	0	0	---	0.00	30.126 
00:45	46.4	46.4	46.4	58	32.4	0	0	---	0.00	30.129 
00:50	46.1	46.1	46.1	58	32.2	0	0	---	0.00	30.129 
00:55	45.8	45.8	45.8	58	31.9	0	0	---	0.00	30.129 
01:00	45.5	45.5	45.5	59	32.0	0	0	---	0.00	30.126 
01:05	45.2	45.2	45.2	60	32.1	0	0	---	0.00	30.126 
01:10	44.9	44.9	44.9	61	32.3	0	0	---	0.00	30.126 
01:15	44.6	44.6	44.6	62	32.4	0	0	---	0.00	30.130 
01:20	44.3	44.3	44.3	63	32.5	0	0	---	0.00	30.130 
01:25	43.9	43.9	43.9	64	32.5	0	0	---	0.00	30.130 
01:30	43.6	43.6	43.6	65	32.6	0	0	---	0.00	30.135 
01:35	43.3	43.3	43.3	65	32.3	0	0	---	0.00	30.135 
01:40	43.2	43.2	43.2	66	32.6	0	0	---	0.00	30.135 
01:45	42.9	42.9	42.9	67	32.7	0	0	---	0.00	30.136 
01:50	42.6	42.6	42.6	68	32.8	0	0	---	0.00	30.136 
01:55	42.3	42.3	42.3	69	32.9	0	0	---	0.00	30.136 
02:00	42.2	42.2	42.2	71	33.5	0	0	---	0.00	30.140 
02:05	42.1	42.1	42.1	71	33.4	0	0	---	0.00	30.140 
02:10	42.1	42.1	42.1	71	33.4	0	0	---	0.00	30.140 
02:15	41.9	41.9	41.9	72	33.5	0	0	---	0.00	30.143 
02:20	41.8	41.8	41.8	72	33.4	0	0	---	0.00	30.143 
02:25	41.6	41.6	41.6	72	33.3	0	0	---	0.00	30.143 
02:30	41.5	41.5	41.5	72	33.2	0	0	---	0.00	30.141 
02:35	41.2	41.2	41.2	73	33.2	0	0	---	0.00	30.141 
02:40	41.1	41.1	41.1	75	33.8	0	0	---	0.00	30.141 
02:45	41.1	41.1	41.1	75	33.8	0	0	---	0.00	30.141 
02:50	40.9	40.9	40.9	76	33.9	0	0	---	0.00	30.141 
02:55	40.8	40.8	40.8	76	33.8	0	0	---	0.00	30.141 
03:00	40.8	40.8	40.8	76	33.8	0	0	---	0.00	30.139 
03:05	40.6	40.6	40.6	76	33.6	0	0	---	0.00	30.139 
03:10	40.6	40.6	40.6	77	34.0	0	0	---	0.00	30.139 
03:15	40.6	40.6	40.6	77	34.0	0	0	---	0.00	30.137 
03:20	40.5	40.5	40.5	77	33.9	0	0	---	0.00	30.137 
03:25	40.5	40.5	40.5	78	34.2	0	0	---	0.00	30.137 
03:30	40.3	40.3	40.3	78	34.0	0	0	---	0.00	30.138 
03:35	40.2	40.2	40.2	79	34.2	0	0	---	0.00	30.138 
03:40	40.1	40.1	40.1	79	34.1	0	0	---	0.00	30.138 
03:45	39.8	39.8	39.8	79	33.8	0	0	---	0.00	30.141 
03:50	39.6	39.6	39.6	80	33.9	0	0	---	0.00	30.141 
03:55	39.3	39.3	39.3	80	33.7	0	0	---	0.00	30.141 
04:00	39.2	39.2	39.2	81	33.9	0	0	---	0.00	30.140 
04:05	38.9	38.9	38.9	81	33.6	0	0	---	0.00	30.140 
04:10	38.8	38.8	38.8	82	33.8	0	0	---	0.00	30.140 
04:15	38.5	38.5	38.5	82	33.5	0	0	---	0.00	30.141 
04:20	38.3	38.3	38.3	83	33.6	0	0	---	0.00	30.141 
04:25	38.2	38.2	38.2	84	33.8	0	1	315	0.00	30.141 
04:30	38.0	38.0	38.0	84	33.6	0	2	315	0.00	30.148 
04:35	37.9	37.9	37.9	84	33.5	0	0	---	0.00	30.148 
04:40	37.8	37.8	37.8	85	33.7	0	0	---	0.00	30.148 
04:45	37.6	37.6	37.6	85	33.5	0	0	---	0.00	30.149 
04:50	37.6	37.6	37.6	86	33.8	0	0	---	0.00	30.149 
04:55	37.5	37.5	37.5	87	34.0	0	0	---	0.00	30.149 
05:00	37.2	37.2	37.2	87	33.7	0	0	---	0.00	30.143 
05:05	37.2	37.2	37.2	87	33.7	0	0	---	0.00	30.143 
05:10	37.0	37.0	37.0	87	33.5	0	0	---	0.00	30.143 
05:15	36.8	36.8	36.8	88	33.6	0	0	---	0.00	30.152 
05:20	36.6	36.6	36.6	88	33.4	0	0	---	0.00	30.152 
05:25	36.5	36.5	36.5	88	33.3	0	0	---	0.00	30.152 
05:30	36.3	36.3	36.3	89	33.4	0	0	---	0.00	30.151 
05:35	36.3	36.3	36.3	89	33.4	0	0	---	0.00	30.151 
05:40	36.2	36.2	36.2	89	33.3	0	0	---	0.00	30.151 
05:45	36.0	36.0	36.0	89	33.1	0	0	---	0.00	30.152 
05:50	36.0	36.0	36.0	89	33.1	0	0	---	0.00	30.152 
05:55	35.9	35.9	35.9	89	33.0	0	0	---	0.00	30.152 
06:00	35.8	35.8	35.8	89	32.9	0	0	---	0.00	30.154 
06:05	35.6	35.6	35.6	90	33.0	0	0	---	0.00	30.154 
06:10	35.6	35.6	35.6	90	33.0	0	0	---	0.00	30.154 
06:15	35.8	35.8	35.8	90	33.2	0	0	---	0.00	30.162 
06:20	35.6	35.6	35.6	90	33.0	0	0	---	0.00	30.162 
06:25	35.6	35.6	35.6	91	33.2	0	0	---	0.00	30.162 
06:30	35.6	35.6	35.6	91	33.2	0	0	---	0.00	30.172 
06:35	35.8	35.8	35.8	91	33.4	0	0	---	0.00	30.172 
06:40	35.9	35.9	35.9	91	33.5	0	0	---	0.00	30.172 
06:45	36.0	36.0	36.0	92	33.9	0	0	---	0.00	30.174 
06:50	36.2	36.2	36.2	92	34.1	0	0	---	0.00	30.174 
06:55	36.5	36.5	36.5	92	34.4	0	0	---	0.00	30.174 
07:00	36.8	36.8	36.8	92	34.7	0	0	---	0.00	30.183 
07:05	37.0	37.0	37.0	92	34.9	0	0	---	0.00	30.183 
07:10	37.3	37.3	37.3	92	35.2	0	0	---	0.00	30.183 
07:15	37.8	37.8	37.8	93	36.0	0	0	---	0.00	30.186 
07:20	38.5	38.5	38.5	93	36.7	0	0	---	0.00	30.186 
07:25	39.8	39.8	39.8	94	38.2	0	1	315	0.00	30.186 
07:30	41.1	41.1	41.1	91	38.7	0	1	315	0.00	30.184 
07:35	42.5	42.5	42.5	84	38.0	0	2	0	0.00	30.184 
07:40	43.8	43.8	43.8	80	38.0	0	1	0	0.00	30.184 
07:45	45.2	45.2	45.2	76	38.1	0	2	0	0.00	30.182 
07:50	46.7	46.7	46.7	72	38.2	0	2	0	0.00	30.182 
07:55	48.0	48.0	48.0	68	37.9	0	2	0	0.00	30.182 
08:00	49.2	49.2	49.2	64	37.5	1	4	90	0.00	30.183 
08:05	49.9	49.9	49.9	64	38.2	1	3	90	0.00	30.183 
08:10	50.5	50.5	50.5	61	37.6	1	3	90	0.00	30.183 
08:15	50.8	50.8	50.8	61	37.8	1	3	90	0.00	30.195 
08:20	51.3	51.3	51.3	62	38.7	1	4	90	0.00	30.195 
08:25	51.9	51.9	51.9	59	38.0	1	2	90	0.00	30.195 
08:30	52.2	52.2	52.2	59	38.3	2	3	68	0.00	30.199 
08:35	52.5	52.5	52.5	60	39.0	1	4	90	0.00	30.199 
08:40	52.6	52.6	52.6	57	37.8	2	4	112	0.00	30.199 
08:45	53.1	53.1	53.1	58	38.7	1	3	90	0.00	30.194 
08:50	53.8	53.8	53.8	55	38.0	1	3	90	0.00	30.194 
08:55	54.4	54.4	54.4	58	39.9	1	4	90	0.00	30.194 
09:00	55.0	55.0	55.0	55	39.1	1	2	90	0.00	30.193 
09:05	55.4	55.4	55.4	53	38.6	2	4	90	0.00	30.193 
09:10	55.7	55.7	55.7	53	38.8	1	4	90	0.00	30.193 
09:15	56.0	56.0	56.0	49	37.1	2	5	112	0.00	30.197 
09:20	55.9	55.9	55.9	51	38.0	2	5	90	0.00	30.197 
09:25	56.2	56.2	56.2	51	38.3	2	5	90	0.00	30.197 
09:30	56.6	56.6	56.6	48	37.1	2	4	90	0.00	30.196 
09:35	57.2	57.2	57.2	46	36.6	2	4	90	0.00	30.196 
09:40	57.2	57.2	57.2	46	36.6	2	4	90	0.00	30.196 
09:45	57.3	57.3	57.3	47	37.2	2	4	112	0.00	30.197 
09:50	57.5	57.5	57.5	48	38.0	2	4	68	0.00	30.197 
09:55	58.1	58.1	58.1	46	37.4	2	4	90	0.00	30.197 
10:00	58.9	58.9	58.9	46	38.2	2	4	90	0.00	30.195 
10:05	59.3	59.3	59.3	45	38.0	1	4	90	0.00	30.195 
10:10	59.9	59.9	59.9	42	36.8	1	4	90	0.00	30.195 
10:15	60.1	60.1	60.1	41	36.3	2	3	112	0.00	30.201 
10:20	60.5	60.5	60.5	45	39.1	0	2	112	0.00	30.201 
10:25	61.0	61.0	61.0	43	38.3	2	4	90	0.00	30.201 
10:30	61.0	61.0	61.0	43	38.3	2	5	90	0.00	30.201 
10:35	61.2	61.2	61.2	39	36.0	1	3	90	0.00	30.201 
10:40	62.0	62.0	62.0	42	38.6	1	3	90	0.00	30.201 
10:45	62.0	62.0	62.0	37	35.4	2	3	112	0.00	30.201 
10:50	62.0	62.0	62.0	37	35.4	1	4	90	0.00	30.201 
10:55	62.3	62.3	62.3	36	35.0	1	2	90	0.00	30.201 
11:00	63.2	63.2	63.2	38	37.2	1	3	90	0.00	30.206 
11:05	63.2	63.2	63.2	38	37.2	2	5	90	0.00	30.206 
11:10	62.7	62.7	62.7	37	36.0	2	5	90	0.00	30.206 
11:15	62.7	62.7	62.7	39	37.4	1	3	90	0.00	30.205 
11:20	63.4	63.4	63.4	35	35.3	1	3	90	0.00	30.205 
11:25	63.7	63.7	63.7	35	35.5	1	3	225	0.00	30.205 
11:30	63.2	63.2	63.2	40	38.5	0	3	248	0.00	30.202 
11:35	63.7	63.7	63.7	32	33.3	1	4	90	0.00	30.202 
11:40	63.5	63.5	63.5	35	35.4	2	6	90	0.00	30.202 
11:45	63.7	63.7	63.7	37	36.9	2	4	90	0.00	30.200 
11:50	63.7	63.7	63.7	36	36.2	2	5	90	0.00	30.200 
11:55	63.5	63.5	63.5	33	33.9	2	4	90	0.00	30.200 
12:00	63.7	63.7	63.7	37	36.9	1	3	90	0.00	30.196 
12:05	64.0	64.0	64.0	34	35.1	1	2	90	0.00	30.196 
12:10	64.5	64.5	64.5	30	32.4	0	3	45	0.00	30.196 
12:15	65.2	65.2	65.2	32	34.6	1	2	315	0.00	30.193 
12:20	66.0	66.0	66.0	31	34.5	1	4	90	0.00	30.193 
12:25	66.1	66.1	66.1	32	35.4	1	3	248	0.00	30.193 
12:30	66.1	66.1	66.1	34	36.9	2	4	90	0.00	30.193 
12:35	66.0	66.0	66.0	29	32.8	2	3	248	0.00	30.193 
12:40	66.0	66.0	66.0	33	36.1	1	3	248	0.00	30.193 
12:45	66.3	66.3	66.3	31	34.8	1	3	90	0.00	30.192 
12:50	66.9	66.9	66.9	30	34.5	0	2	90	0.00	30.192 
12:55	67.1	67.1	67.1	34	37.8	2	4	90	0.00	30.192 
13:00	67.3	67.3	67.3	30	34.8	1	4	90	0.00	30.182 
13:05	67.1	67.1	67.1	34	37.8	1	4	90	0.00	30.182 
13:10	67.1	67.1	67.1	37	40.0	1	4	90	0.00	30.182 
13:15	67.4	67.4	67.4	35	38.8	1	3	90	0.00	30.181 
13:20	67.9	67.9	67.9	31	36.1	1	2	90	0.00	30.181 
13:25	68.3	68.3	68.3	32	37.3	1	5	90	0.00	30.181 
13:30	67.9	67.9	67.9	37	40.7	2	4	90	0.00	30.173 
13:35	67.3	67.3	67.3	32	36.4	3	6	90	0.00	30.173 
13:40	67.4	67.4	67.4	33	37.3	1	4	90	0.00	30.173 
13:45	67.6	67.6	67.6	31	35.9	1	2	90	0.00	30.168 
13:50	67.8	67.8	67.8	39	41.9	2	5	90	0.00	30.168 
13:55	67.4	67.4	67.4	31	35.7	2	5	90	0.00	30.168 
14:00	67.1	67.1	67.1	29	33.8	1	4	90	0.00	30.164 
14:05	67.3	67.3	67.3	33	37.2	1	3	90	0.00	30.164 
14:10	67.9	67.9	67.9	30	35.3	1	4	248	0.00	30.164 
14:15	68.3	68.3	68.3	30	35.7	1	4	112	0.00	30.160 
14:20	68.4	68.4	68.4	32	37.4	2	3	248	0.00	30.160 
14:25	69.1	69.1	69.1	32	38.0	1	3	248	0.00	30.160 
14:30	69.8	69.8	69.8	35	40.9	1	4	248	0.00	30.155 
14:35	69.9	69.9	69.9	35	41.0	2	3	45	0.00	30.155 
14:40	70.3	70.3	70.3	34	40.6	0	2	112	0.00	30.155 
14:45	70.1	70.1	70.1	31	38.1	1	3	202	0.00	30.155 
14:50	69.9	69.9	69.9	31	37.9	1	4	248	0.00	30.155 
14:55	69.9	69.9	69.9	27	34.4	1	2	248	0.00	30.155 
15:00	69.9	69.9	69.9	31	37.9	1	4	112	0.00	30.145 
15:05	70.1	70.1	70.1	31	38.1	0	2	112	0.00	30.145 
15:10	70.3	70.3	70.3	30	37.4	1	2	112	0.00	30.145 
15:15	70.9	70.9	70.9	33	40.3	1	4	248	0.00	30.139 
15:20	70.6	70.6	70.6	27	35.0	0	2	270	0.00	30.139 
15:25	70.8	70.8	70.8	33	40.3	1	4	90	0.00	30.139 
15:30	70.9	70.9	70.9	32	39.6	1	3	135	0.00	30.129 
15:35	70.9	70.9	70.9	27	35.2	1	3	135	0.00	30.129 
15:40	71.1	71.1	71.1	33	40.5	0	3	112	0.00	30.129 
15:45	71.3	71.3	71.3	26	34.6	1	3	22	0.00	30.124 
15:50	70.6	70.6	70.6	27	35.0	1	3	0	0.00	30.124 
15:55	70.6	70.6	70.6	27	35.0	0	1	0	0.00	30.124 
16:00	71.1	71.1	71.1	33	40.5	1	3	248	0.00	30.125 
16:05	70.8	70.8	70.8	29	37.0	1	3	315	0.00	30.125 
16:10	70.6	70.6	70.6	30	37.6	1	3	315	0.00	30.125 
16:15	70.6	70.6	70.6	29	36.8	1	4	248	0.00	30.121 
16:20	71.1	71.1	71.1	26	34.5	1	2	248	0.00	30.121 
16:25	71.1	71.1	71.1	27	35.4	1	2	225	0.00	30.121 
16:30	71.5	71.5	71.5	29	37.6	1	3	225	0.00	30.115 
16:35	71.5	71.5	71.5	27	35.8	1	3	248	0.00	30.115 
16:40	71.1	71.1	71.1	25	33.5	1	3	338	0.00	30.115 
16:45	71.5	71.5	71.5	27	35.8	1	3	270	0.00	30.113 
16:50	71.8	71.8	71.8	28	36.9	1	3	270	0.00	30.113 
16:55	71.6	71.6	71.6	28	36.8	1	2	315	0.00	30.113 
17:00	71.5	71.5	71.5	27	35.8	2	6	315	0.00	30.110 
17:05	70.9	70.9	70.9	26	34.3	1	4	292	0.00	30.110 
17:10	70.9	70.9	70.9	26	34.3	1	4	248	0.00	30.110 
17:15	70.9	70.9	70.9	29	37.0	1	3	112	0.00	30.111 
17:20	71.1	71.1	71.1	28	36.3	1	3	112	0.00	30.111 
17:25	71.5	71.5	71.5	26	34.8	0	2	180	0.00	30.111 
17:30	71.8	71.8	71.8	31	39.5	0	1	315	0.00	30.113 
17:35	72.1	72.1	72.1	28	37.2	1	4	315	0.00	30.113 
17:40	72.1	72.1	72.1	27	36.3	1	2	248	0.00	30.113 
17:45	72.1	72.1	72.1	25	34.3	0	2	248	0.00	30.115 
17:50	71.6	71.6	71.6	26	34.9	1	2	292	0.00	30.115 
17:55	71.3	71.3	71.3	27	35.6	1	4	248	0.00	30.115 
18:00	71.3	71.3	71.3	27	35.6	1	3	248	0.00	30.117 
18:05	71.6	71.6	71.6	26	34.9	1	4	315	0.00	30.117 
18:10	71.3	71.3	71.3	27	35.6	1	3	248	0.00	30.117 
18:15	71.1	71.1	71.1	26	34.5	1	4	248	0.00	30.112 
18:20	70.9	70.9	70.9	25	33.3	0	1	248	0.00	30.112 
18:25	70.6	70.6	70.6	27	35.0	0	1	315	0.00	30.112 
18:30	70.4	70.4	70.4	27	34.8	1	3	315	0.00	30.107 
18:35	70.6	70.6	70.6	28	35.9	1	3	248	0.00	30.107 
18:40	70.4	70.4	70.4	28	35.7	1	4	248	0.00	30.107 
18:45	70.3	70.3	70.3	28	35.6	1	3	292	0.00	30.104 
18:50	70.3	70.3	70.3	27	34.7	1	2	292	0.00	30.104 
18:55	70.3	70.3	70.3	28	35.6	1	2	315	0.00	30.104 
19:00	70.1	70.1	70.1	30	37.2	1	4	248	0.00	30.103 
19:05	70.1	70.1	70.1	28	35.5	0	2	248	0.00	30.103 
19:10	69.9	69.9	69.9	28	35.3	1	2	270	0.00	30.103 
19:15	69.8	69.8	69.8	27	34.3	0	1	270	0.00	30.091 
19:20	69.6	69.6	69.6	28	35.0	0	1	270	0.00	30.091 
19:25	69.4	69.4	69.4	28	34.9	1	3	248	0.00	30.091 
19:30	69.3	69.3	69.3	29	35.7	0	1	248	0.00	30.084 
19:35	69.1	69.1	69.1	30	36.4	0	0	---	0.00	30.084 
19:40	68.9	68.9	68.9	30	36.2	0	0	---	0.00	30.084 
19:45	68.8	68.8	68.8	30	36.1	0	0	---	0.00	30.078 
19:50	68.6	68.6	68.6	29	35.1	0	1	248	0.00	30.078 
19:55	68.4	68.4	68.4	30	35.7	0	1	248	0.00	30.078 
20:00	68.3	68.3	68.3	29	34.8	0	0	---	0.00	30.080 
20:05	67.9	67.9	67.9	31	36.1	0	0	---	0.00	30.080 
20:10	67.6	67.6	67.6	32	36.7	0	1	248	0.00	30.080 
20:15	67.3	67.3	67.3	33	37.2	0	1	248	0.00	30.075 
20:20	67.1	67.1	67.1	34	37.8	0	1	248	0.00	30.075 
20:25	66.6	66.6	66.6	33	36.6	0	1	248	0.00	30.075 
20:30	66.3	66.3	66.3	34	37.1	0	0	---	0.00	30.075 
20:35	66.0	66.0	66.0	35	37.6	0	0	---	0.00	30.075 
20:40	65.3	65.3	65.3	36	37.7	0	0	---	0.00	30.075 
20:45	64.8	64.8	64.8	37	37.9	0	0	---	0.00	30.074 
20:50	64.2	64.2	64.2	39	38.7	0	0	---	0.00	30.074 
20:55	63.4	63.4	63.4	40	38.7	0	0	---	0.00	30.074 
21:00	62.7	62.7	62.7	42	39.3	0	0	---	0.00	30.076 
21:05	62.1	62.1	62.1	43	39.3	0	0	---	0.00	30.076 
21:10	61.5	61.5	61.5	44	39.4	0	0	---	0.00	30.076 
21:15	60.9	60.9	60.9	45	39.4	0	0	---	0.00	30.075 
21:20	60.1	60.1	60.1	46	39.2	0	0	---	0.00	30.075 
21:25	59.6	59.6	59.6	47	39.3	0	0	---	0.00	30.075 
21:30	59.0	59.0	59.0	50	40.4	0	0	---	0.00	30.075 
21:35	58.6	58.6	58.6	50	40.0	0	0	---	0.00	30.075 
21:40	58.1	58.1	58.1	51	40.1	0	0	---	0.00	30.075 
21:45	57.6	57.6	57.6	53	40.6	0	0	---	0.00	30.080 
21:50	57.2	57.2	57.2	54	40.7	0	0	---	0.00	30.080 
21:55	56.7	56.7	56.7	56	41.2	0	0	---	0.00	30.080 
22:00	56.5	56.5	56.5	56	41.0	0	0	---	0.00	30.089 
22:05	56.2	56.2	56.2	57	41.2	0	0	---	0.00	30.089 
22:10	55.9	55.9	55.9	58	41.3	0	0	---	0.00	30.089 
22:15	55.4	55.4	55.4	58	40.9	0	0	---	0.00	30.088 
22:20	55.1	55.1	55.1	58	40.6	0	0	---	0.00	30.088 
22:25	54.8	54.8	54.8	60	41.2	0	0	---	0.00	30.088 
22:30	54.4	54.4	54.4	59	40.4	0	0	---	0.00	30.087 
22:35	54.1	54.1	54.1	60	40.5	0	0	---	0.00	30.087 
22:40	53.8	53.8	53.8	63	41.5	0	0	---	0.00	30.087 
22:45	53.6	53.6	53.6	63	41.3	0	0	---	0.00	30.092 
22:50	53.3	53.3	53.3	63	41.0	0	0	---	0.00	30.092 
22:55	53.2	53.2	53.2	64	41.3	0	0	---	0.00	30.092 
23:00	52.9	52.9	52.9	64	41.1	0	0	---	0.00	30.092 
23:05	52.6	52.6	52.6	65	41.2	0	0	---	0.00	30.092 
23:10	52.5	52.5	52.5	64	40.7	0	0	---	0.00	30.092 
23:15	52.3	52.3	52.3	66	41.3	0	0	---	0.00	30.090 
23:20	52.0	52.0	52.0	66	41.0	0	0	---	0.00	30.090 
23:25	51.9	51.9	51.9	66	40.9	0	0	---	0.00	30.090 
23:30	51.7	51.7	51.7	67	41.1	0	0	---	0.00	30.078 
23:35	51.6	51.6	51.6	68	41.4	0	0	---	0.00	30.078 
23:40	51.4	51.4	51.4	69	41.6	0	0	---	0.00	30.078 
23:45	51.1	51.1	51.1	68	40.9	0	0	---	0.00	30.077 
23:50	51.0	51.0	51.0	69	41.2	0	0	---	0.00	30.077 
23:55	50.8	50.8	50.8	70	41.4	0	0	---	0.00	30.077 

CoCoRaHS
IN-AL-39
A2 Web Hosting
Creative Commons License
GoDaddy
Look for:

loaded 2017-12-11 14:07:47 • last modified 2010-11-18 10:43:29
Privacy PolicyDisclaimer
• wx.awcolley.com is powered by PmWiki v.2002016 •
• all content (unless otherwise noted) © 2017 A W Colley